createdAt,value
2023-01-13T00:01:32.894Z,34.38
2023-01-13T00:03:37.641Z,20.65
2023-01-13T00:05:44.872Z,20.73
2023-01-13T00:07:52.111Z,26.17
2023-01-13T00:09:56.787Z,25.65
2023-01-13T00:12:01.608Z,23.05
2023-01-13T00:14:06.346Z,19.10
2023-01-13T00:16:15.734Z,28.27
2023-01-13T00:18:20.568Z,21.63
2023-01-13T00:20:25.633Z,24.35
2023-01-13T00:22:32.341Z,23.88
2023-01-13T00:24:42.078Z,23.83
2023-01-13T00:26:46.876Z,29.95
2023-01-13T00:28:51.920Z,17.08
2023-01-13T00:30:58.420Z,20.92
2023-01-13T00:33:06.500Z,27.48
2023-01-13T00:35:12.108Z,23.10
2023-01-13T00:37:16.977Z,23.60
2023-01-13T00:39:21.797Z,23.98
2023-01-13T00:41:49.652Z,28.88
2023-01-13T00:43:51.854Z,24.63
2023-01-13T00:45:56.555Z,30.80
2023-01-13T00:48:01.289Z,30.58
2023-01-13T00:50:06.189Z,30.98
2023-01-13T00:52:10.843Z,27.33
2023-01-13T00:54:18.711Z,31.27
2023-01-13T00:56:39.223Z,27.15
2023-01-13T00:58:48.865Z,29.35
2023-01-13T01:00:53.760Z,35.60
2023-01-13T01:02:58.609Z,30.38
2023-01-13T01:05:06.390Z,34.08
2023-01-13T01:07:11.285Z,21.85
2023-01-13T01:09:17.095Z,21.40
2023-01-13T01:11:23.563Z,18.80
2023-01-13T01:13:31.122Z,41.20
2023-01-13T01:15:38.939Z,26.80
2023-01-13T01:17:44.411Z,24.45
2023-01-13T01:19:49.164Z,28.92
2023-01-13T01:21:55.304Z,25.92
2023-01-13T01:24:02.417Z,30.50
2023-01-13T01:26:09.315Z,28.27
2023-01-13T01:28:14.035Z,28.27
2023-01-13T01:30:19.826Z,26.63
2023-01-13T01:32:30.301Z,28.50
2023-01-13T01:34:35.788Z,26.08
2023-01-13T01:36:40.548Z,30.25
2023-01-13T01:38:45.884Z,17.67
2023-01-13T01:40:50.802Z,21.42
2023-01-13T01:43:07.914Z,31.52
2023-01-13T01:45:17.888Z,41.38
2023-01-13T01:47:23.320Z,29.45
2023-01-13T01:49:35.148Z,26.20
2023-01-13T01:51:43.015Z,27.42
2023-01-13T01:53:48.377Z,40.92
2023-01-13T01:55:53.769Z,29.90
2023-01-13T01:58:01.553Z,33.70
2023-01-13T02:00:07.841Z,18.52
2023-01-13T02:02:13.521Z,42.17
2023-01-13T02:04:21.876Z,28.50
2023-01-13T02:06:30.623Z,26.90
2023-01-13T02:08:35.756Z,28.67
2023-01-13T02:10:41.417Z,34.45
2023-01-13T02:12:45.281Z,23.27
2023-01-13T02:14:50.101Z,29.65
2023-01-13T02:17:01.030Z,17.50
2023-01-13T02:19:11.126Z,32.22
2023-01-13T02:21:35.438Z,33.40
2023-01-13T02:24:19.414Z,22.85
2023-01-13T02:26:53.500Z,28.35
2023-01-13T02:29:23.606Z,24.08
2023-01-13T02:31:47.688Z,27.55
2023-01-13T02:34:04.484Z,36.88
2023-01-13T02:36:16.296Z,18.55
2023-01-13T02:38:26.118Z,21.13
2023-01-13T02:40:35.692Z,25.10
2023-01-13T02:42:56.620Z,24.35
2023-01-13T02:45:06.258Z,27.65
2023-01-13T02:47:18.966Z,27.75
2023-01-13T02:49:30.503Z,18.40
2023-01-13T02:51:35.774Z,24.27
2023-01-13T02:53:43.707Z,18.10
2023-01-13T02:55:50.514Z,20.15
2023-01-13T02:57:55.753Z,23.50
2023-01-13T03:00:00.988Z,22.52
2023-01-13T03:02:06.994Z,18.30
2023-01-13T03:04:50.005Z,24.35
2023-01-13T03:07:01.852Z,22.33
2023-01-13T03:09:10.716Z,20.10
2023-01-13T03:11:16.380Z,21.35
2023-01-13T03:13:30.635Z,20.10
2023-01-13T03:15:41.691Z,15.93
2023-01-13T03:17:53.073Z,19.38
2023-01-13T03:20:07.274Z,19.15
2023-01-13T03:22:20.729Z,18.23
2023-01-13T03:24:29.959Z,24.40
2023-01-13T03:26:38.174Z,15.82
2023-01-13T03:28:51.221Z,15.65
2023-01-13T03:30:59.332Z,16.17
2023-01-13T03:33:07.492Z,12.43
2023-01-13T03:35:19.027Z,15.45
2023-01-13T03:37:37.763Z,16.27
2023-01-13T03:39:45.678Z,15.25
2023-01-13T03:41:54.768Z,16.60
2023-01-13T03:44:16.676Z,14.93
2023-01-13T03:46:24.714Z,22.92
2023-01-13T03:48:34.105Z,10.57
2023-01-13T03:50:44.587Z,12.77
2023-01-13T03:52:51.891Z,9.68
2023-01-13T03:55:00.736Z,15.07
2023-01-13T03:57:07.974Z,16.58
2023-01-13T03:59:15.683Z,18.70
2023-01-13T04:01:24.260Z,14.05
2023-01-13T04:03:34.868Z,21.80
2023-01-13T04:05:44.987Z,15.63
2023-01-13T04:07:54.267Z,10.15
2023-01-13T04:10:01.730Z,12.25
2023-01-13T04:12:13.595Z,14.60
2023-01-13T04:14:20.191Z,13.55
2023-01-13T04:16:25.107Z,12.65
2023-01-13T04:18:30.943Z,10.85
2023-01-13T04:20:35.697Z,15.23
2023-01-13T04:22:43.264Z,8.80
2023-01-13T04:24:48.875Z,5.90
2023-01-13T04:26:53.649Z,14.20
2023-01-13T04:29:00.123Z,12.80
2023-01-13T04:31:04.906Z,18.02
2023-01-13T04:33:10.300Z,10.20
2023-01-13T04:35:15.199Z,9.55
2023-01-13T04:37:20.130Z,16.67
2023-01-13T04:39:27.626Z,8.98
2023-01-13T04:41:52.611Z,10.73
2023-01-13T04:43:57.719Z,13.05
2023-01-13T04:46:02.475Z,19.95
2023-01-13T04:48:08.089Z,18.92
2023-01-13T04:50:20.122Z,21.85
2023-01-13T04:52:24.916Z,16.42
2023-01-13T04:54:32.219Z,16.52
2023-01-13T04:56:36.987Z,15.98
2023-01-13T04:58:41.896Z,15.60
2023-01-13T05:00:46.652Z,14.98
2023-01-13T05:02:53.523Z,10.35
2023-01-13T05:04:58.457Z,15.52
2023-01-13T05:07:03.617Z,8.02
2023-01-13T05:09:08.623Z,12.15
2023-01-13T05:11:31.233Z,12.85
2023-01-13T05:13:48.994Z,18.90
2023-01-13T05:16:18.021Z,13.63
2023-01-13T05:18:24.021Z,17.33
2023-01-13T05:20:28.887Z,16.60
2023-01-13T05:22:46.169Z,17.33
2023-01-13T05:25:03.291Z,14.38
2023-01-13T05:27:10.655Z,18.77
2023-01-13T05:29:15.510Z,14.88
2023-01-13T05:31:20.328Z,11.25
2023-01-13T05:33:25.069Z,17.83
2023-01-13T05:35:30.408Z,15.85
2023-01-13T05:37:35.222Z,11.77
2023-01-13T05:39:52.174Z,14.13
2023-01-13T05:42:09.558Z,15.43
2023-01-13T05:44:17.028Z,14.45
2023-01-13T05:46:21.955Z,14.98
2023-01-13T05:48:27.958Z,14.13
2023-01-13T05:50:34.993Z,20.52
2023-01-13T05:52:39.857Z,10.38
2023-01-13T05:54:44.794Z,16.90
2023-01-13T05:56:50.043Z,24.45
2023-01-13T05:58:54.835Z,15.02
2023-01-13T06:01:06.343Z,14.48
2023-01-13T06:03:11.740Z,14.55
2023-01-13T06:05:16.936Z,15.93
2023-01-13T06:07:21.811Z,12.45
2023-01-13T06:09:26.563Z,24.13
2023-01-13T06:11:33.340Z,13.20
2023-01-13T06:13:38.130Z,24.23
2023-01-13T06:15:43.121Z,15.85
2023-01-13T06:17:50.652Z,15.20
2023-01-13T06:19:55.330Z,12.95
2023-01-13T06:22:01.017Z,11.90
2023-01-13T06:24:06.156Z,16.00
2023-01-13T06:26:16.594Z,20.15
2023-01-13T06:28:21.306Z,16.83
2023-01-13T06:30:25.987Z,23.73
2023-01-13T06:32:34.735Z,18.00
2023-01-13T06:34:42.933Z,15.18
2023-01-13T06:36:50.474Z,18.50
2023-01-13T06:39:00.871Z,17.30
2023-01-13T06:41:05.788Z,18.00
2023-01-13T06:43:17.574Z,11.57
2023-01-13T06:45:23.333Z,20.40
2023-01-13T06:47:28.168Z,24.27
2023-01-13T06:49:33.583Z,19.85
2023-01-13T06:51:40.984Z,16.35
2023-01-13T06:53:48.770Z,17.27
2023-01-13T06:55:53.539Z,20.20
2023-01-13T06:58:00.620Z,15.40
2023-01-13T07:00:06.158Z,11.65
2023-01-13T07:02:11.422Z,22.90
2023-01-13T07:04:16.513Z,15.60
2023-01-13T07:06:21.328Z,28.00
2023-01-13T07:08:29.015Z,17.17
2023-01-13T07:10:34.659Z,19.73
2023-01-13T07:13:00.682Z,18.23
2023-01-13T07:15:17.904Z,16.98
2023-01-13T07:17:25.569Z,16.17
2023-01-13T07:19:30.635Z,19.88
2023-01-13T07:21:35.343Z,12.70
2023-01-13T07:23:44.276Z,14.57
2023-01-13T07:25:49.096Z,15.57
2023-01-13T07:27:53.846Z,20.50
2023-01-13T07:29:58.956Z,16.88
2023-01-13T07:32:04.602Z,14.88
2023-01-13T07:34:09.698Z,14.02
2023-01-13T07:36:14.971Z,12.80
2023-01-13T07:38:20.339Z,22.83
2023-01-13T07:40:27.747Z,11.57
2023-01-13T07:42:44.971Z,17.55
2023-01-13T07:44:50.162Z,13.18
2023-01-13T07:46:54.840Z,22.20
2023-01-13T07:48:59.614Z,36.08
2023-01-13T07:51:05.163Z,13.38
2023-01-13T07:53:12.697Z,16.42
2023-01-13T07:55:17.866Z,17.85
2023-01-13T07:57:25.166Z,18.33
2023-01-13T07:59:29.896Z,20.15
2023-01-13T08:01:34.835Z,19.25
2023-01-13T08:03:39.542Z,21.40
2023-01-13T08:05:44.272Z,17.70
2023-01-13T08:07:49.051Z,16.58
2023-01-13T08:09:53.716Z,11.80
2023-01-13T08:12:19.325Z,16.50
2023-01-13T08:14:26.792Z,20.65
2023-01-13T08:16:36.117Z,13.63
2023-01-13T08:18:41.746Z,14.77
2023-01-13T08:20:46.756Z,18.75
2023-01-13T08:22:51.450Z,16.42
2023-01-13T08:24:56.406Z,19.75
2023-01-13T08:27:01.002Z,13.30
2023-01-13T08:29:06.245Z,17.73
2023-01-13T08:31:16.259Z,8.23
2023-01-13T08:33:21.335Z,20.30
2023-01-13T08:35:26.565Z,19.40
2023-01-13T08:37:31.603Z,14.55
2023-01-13T08:39:36.286Z,19.13
2023-01-13T08:41:53.353Z,13.68
2023-01-13T08:43:58.100Z,15.77
2023-01-13T08:46:05.373Z,19.55
2023-01-13T08:48:13.003Z,19.92
2023-01-13T08:50:18.737Z,19.17
2023-01-13T08:52:23.607Z,12.68
2023-01-13T08:54:31.116Z,18.63
2023-01-13T08:56:35.845Z,17.75
2023-01-13T08:58:41.143Z,11.20
2023-01-13T09:00:46.953Z,14.27
2023-01-13T09:02:51.723Z,17.45
2023-01-13T09:05:00.681Z,23.73
2023-01-13T09:07:05.255Z,21.75
2023-01-13T09:09:09.955Z,16.15
2023-01-13T09:11:33.499Z,14.70
2023-01-13T09:13:38.765Z,11.80
2023-01-13T09:15:44.651Z,18.45
2023-01-13T09:17:50.049Z,14.93
2023-01-13T09:19:54.776Z,14.38
2023-01-13T09:22:02.198Z,22.67
2023-01-13T09:24:07.616Z,18.60
2023-01-13T09:26:12.597Z,13.88
2023-01-13T09:28:20.293Z,15.93
2023-01-13T09:30:25.031Z,22.88
2023-01-13T09:32:29.850Z,21.35
2023-01-13T09:34:47.066Z,14.35
2023-01-13T09:36:51.756Z,20.35
2023-01-13T09:38:59.513Z,23.13
2023-01-13T09:41:24.254Z,15.90
2023-01-13T09:43:45.503Z,17.88
2023-01-13T09:45:53.861Z,12.30
2023-01-13T09:48:05.439Z,20.30
2023-01-13T09:50:20.798Z,16.80
2023-01-13T09:52:27.160Z,20.38
2023-01-13T09:54:38.120Z,20.55
2023-01-13T09:56:42.947Z,17.55
2023-01-13T09:58:48.233Z,12.88
2023-01-13T10:01:00.900Z,15.43
2023-01-13T10:03:18.803Z,19.27
2023-01-13T10:05:32.367Z,15.73
2023-01-13T10:07:40.471Z,19.70
2023-01-13T10:09:52.762Z,14.30
2023-01-13T10:12:12.689Z,13.20
2023-01-13T10:14:21.931Z,18.02
2023-01-13T10:16:36.868Z,15.57
2023-01-13T10:18:48.801Z,11.15
2023-01-13T10:21:00.004Z,22.17
2023-01-13T10:23:10.740Z,12.07
2023-01-13T10:25:31.476Z,14.38
2023-01-13T10:27:37.747Z,15.50
2023-01-13T10:29:45.639Z,17.80
2023-01-13T10:31:50.413Z,15.38
2023-01-13T10:34:01.354Z,19.65
2023-01-13T10:36:07.636Z,11.93
2023-01-13T10:38:18.876Z,14.20
2023-01-13T10:40:23.856Z,14.02
2023-01-13T10:42:31.525Z,12.07
2023-01-13T10:44:50.026Z,9.43
2023-01-13T10:46:57.148Z,14.77
2023-01-13T10:49:03.818Z,14.25
2023-01-13T10:51:23.115Z,14.07
2023-01-13T10:53:34.418Z,16.98
2023-01-13T10:55:40.692Z,11.07
2023-01-13T10:57:48.132Z,8.90
2023-01-13T10:59:53.975Z,7.25
2023-01-13T11:02:23.975Z,18.38
2023-01-13T11:04:35.606Z,11.85
2023-01-13T11:06:40.563Z,11.65
2023-01-13T11:08:46.760Z,13.35
2023-01-13T11:10:53.777Z,16.67
2023-01-13T11:13:09.207Z,16.50
2023-01-13T11:15:18.662Z,15.95
2023-01-13T11:17:35.640Z,14.38
2023-01-13T11:19:44.192Z,17.17
2023-01-13T11:21:52.439Z,9.73
2023-01-13T11:24:05.261Z,13.00
2023-01-13T11:26:17.308Z,12.18
2023-01-13T11:28:37.569Z,14.90
2023-01-13T11:30:48.505Z,12.73
2023-01-13T11:33:06.572Z,10.90
2023-01-13T11:35:18.890Z,11.05
2023-01-13T11:37:26.945Z,11.30
2023-01-13T11:39:47.602Z,10.18
2023-01-13T11:42:10.769Z,13.95
2023-01-13T11:44:26.004Z,15.90
2023-01-13T11:46:34.207Z,13.18
2023-01-13T11:48:43.168Z,14.55
2023-01-13T11:50:54.201Z,10.57
2023-01-13T11:55:29.498Z,15.40
2023-01-13T11:57:58.918Z,17.00
2023-01-13T12:00:17.874Z,22.63
2023-01-13T12:02:39.623Z,12.80
2023-01-13T12:04:49.843Z,13.65
2023-01-13T12:07:02.865Z,11.60
2023-01-13T12:09:31.915Z,14.10
2023-01-13T12:12:02.054Z,8.88
2023-01-13T12:14:16.585Z,14.38
2023-01-13T12:16:29.020Z,10.70
2023-01-13T12:18:44.170Z,12.43
2023-01-13T12:20:55.516Z,12.00
2023-01-13T12:23:04.192Z,9.85
2023-01-13T12:25:15.183Z,9.43
2023-01-13T12:27:25.089Z,15.45
2023-01-13T12:29:36.226Z,16.15
2023-01-13T12:31:44.557Z,12.63
2023-01-13T12:34:04.995Z,8.63
2023-01-13T12:36:14.698Z,10.95
2023-01-13T12:38:24.359Z,13.60
2023-01-13T12:40:39.482Z,13.88
2023-01-13T12:43:02.173Z,16.00
2023-01-13T12:45:24.705Z,14.27
2023-01-13T12:47:40.317Z,11.13
2023-01-13T12:49:46.083Z,9.00
2023-01-13T12:52:26.520Z,10.25
2023-01-13T12:54:53.878Z,14.23
2023-01-13T12:57:00.012Z,11.23
2023-01-13T12:59:48.839Z,10.50
2023-01-13T13:01:54.928Z,11.05
2023-01-13T13:04:13.677Z,12.60
2023-01-13T13:06:21.755Z,14.07
2023-01-13T13:08:32.722Z,11.77
2023-01-13T13:10:40.542Z,8.95
2023-01-13T13:13:12.733Z,13.65
2023-01-13T13:15:28.871Z,15.82
2023-01-13T13:17:44.496Z,15.63
2023-01-13T13:19:53.337Z,10.13
2023-01-13T13:22:25.315Z,20.08
2023-01-13T13:24:32.353Z,16.15
2023-01-13T13:26:42.735Z,13.30
2023-01-13T13:28:55.369Z,16.27
2023-01-13T13:31:12.079Z,11.82
2023-01-13T13:33:34.440Z,15.95
2023-01-13T13:35:53.066Z,9.20
2023-01-13T13:38:20.345Z,13.57
2023-01-13T13:40:37.878Z,15.20
2023-01-13T13:43:00.733Z,10.00
2023-01-13T13:45:19.987Z,12.10
2023-01-13T13:47:25.156Z,15.43
2023-01-13T13:49:41.619Z,11.45
2023-01-13T13:51:54.337Z,16.90
2023-01-13T13:53:59.727Z,12.40
2023-01-13T13:56:07.638Z,6.75
2023-01-13T13:58:17.403Z,13.63
2023-01-13T14:00:32.998Z,13.05
2023-01-13T14:02:40.211Z,10.38
2023-01-13T14:04:46.376Z,14.05
2023-01-13T14:07:01.780Z,12.13
2023-01-13T14:09:07.083Z,13.65
2023-01-13T14:11:32.147Z,7.47
2023-01-13T14:13:37.033Z,9.70
2023-01-13T14:15:42.411Z,12.05
2023-01-13T14:17:47.151Z,11.68
2023-01-13T14:19:54.938Z,11.50
2023-01-13T14:22:02.910Z,15.05
2023-01-13T14:24:17.911Z,9.23
2023-01-13T14:26:27.574Z,10.75
2023-01-13T14:28:34.951Z,15.85
2023-01-13T14:30:40.105Z,7.32
2023-01-13T14:32:51.364Z,9.93
2023-01-13T14:34:56.284Z,11.32
2023-01-13T14:37:04.147Z,7.10
2023-01-13T14:39:28.488Z,10.18
2023-01-13T14:41:35.541Z,12.93
2023-01-13T14:43:49.044Z,11.73
2023-01-13T14:46:01.239Z,11.13
2023-01-13T14:48:11.817Z,10.90
2023-01-13T14:50:29.369Z,6.63
2023-01-13T14:52:38.868Z,7.97
2023-01-13T14:54:49.135Z,14.27
2023-01-13T14:56:55.470Z,14.50
2023-01-13T14:59:00.451Z,12.30
2023-01-13T15:01:30.725Z,12.90
2023-01-13T15:03:43.711Z,9.70
2023-01-13T15:05:52.742Z,17.20
2023-01-13T15:08:01.430Z,15.27
2023-01-13T15:10:07.920Z,12.88
2023-01-13T15:12:20.991Z,14.15
2023-01-13T15:14:31.323Z,15.20
2023-01-13T15:16:37.131Z,8.80
2023-01-13T15:18:41.979Z,9.90
2023-01-13T15:20:46.926Z,19.00
2023-01-13T15:22:52.980Z,10.00
2023-01-13T15:25:01.387Z,14.98
2023-01-13T15:27:07.613Z,15.38
2023-01-13T15:29:17.152Z,14.85
2023-01-13T15:31:23.208Z,13.05
2023-01-13T15:33:27.907Z,16.88
2023-01-13T15:35:32.782Z,9.40
2023-01-13T15:37:37.866Z,7.60
2023-01-13T15:39:42.734Z,16.52
2023-01-13T15:42:02.489Z,11.50
2023-01-13T15:44:20.174Z,9.82
2023-01-13T15:46:37.807Z,8.93
2023-01-13T15:48:45.337Z,12.80
2023-01-13T15:50:55.621Z,12.25
2023-01-13T15:53:00.814Z,8.20
2023-01-13T15:55:05.760Z,10.52
2023-01-13T15:57:17.308Z,11.95
2023-01-13T15:59:24.655Z,14.40
2023-01-13T16:01:29.514Z,8.30
2023-01-13T16:03:34.383Z,11.05
2023-01-13T16:05:39.233Z,13.55
2023-01-13T16:07:46.845Z,14.65
2023-01-13T16:09:51.533Z,12.40
2023-01-13T16:11:56.699Z,10.20
2023-01-13T16:14:04.445Z,19.50
2023-01-13T16:16:20.174Z,15.10
2023-01-13T16:18:26.677Z,15.75
2023-01-13T16:20:36.419Z,11.38
2023-01-13T16:22:41.999Z,17.88
2023-01-13T16:24:46.976Z,11.35
2023-01-13T16:26:52.287Z,10.52
2023-01-13T16:28:59.192Z,9.45
2023-01-13T16:31:22.494Z,11.55
2023-01-13T16:33:27.253Z,9.75
2023-01-13T16:35:32.402Z,9.98
2023-01-13T16:37:37.237Z,12.05
2023-01-13T16:39:42.066Z,15.73
2023-01-13T16:41:46.715Z,6.80
2023-01-13T16:43:51.742Z,7.60
2023-01-13T16:45:56.509Z,6.28
2023-01-13T16:48:04.772Z,10.05
2023-01-13T16:50:13.308Z,8.07
2023-01-13T16:52:18.537Z,11.95
2023-01-13T16:54:23.859Z,8.70
2023-01-13T16:56:30.613Z,9.90
2023-01-13T16:58:35.884Z,9.60
2023-01-13T17:00:45.029Z,11.85
2023-01-13T17:02:50.672Z,9.43
2023-01-13T17:04:58.209Z,9.68
2023-01-13T17:07:10.986Z,8.68
2023-01-13T17:09:20.014Z,10.30
2023-01-13T17:11:25.319Z,11.20
2023-01-13T17:13:32.635Z,8.80
2023-01-13T17:15:37.932Z,14.15
2023-01-13T17:17:47.536Z,13.82
2023-01-13T17:19:53.475Z,5.88
2023-01-13T17:22:01.293Z,11.82
2023-01-13T17:24:08.167Z,11.43
2023-01-13T17:26:32.422Z,16.02
2023-01-13T17:28:37.443Z,10.70
2023-01-13T17:30:43.582Z,12.63
2023-01-13T17:32:49.294Z,11.90
2023-01-13T17:34:54.722Z,10.30
2023-01-13T17:37:02.171Z,13.05
2023-01-13T17:39:07.594Z,11.57
2023-01-13T17:41:12.621Z,13.45
2023-01-13T17:43:17.569Z,15.90
2023-01-13T17:45:23.100Z,12.32
2023-01-13T17:47:28.689Z,13.25
2023-01-13T17:49:36.215Z,15.82
2023-01-13T17:51:44.236Z,12.55
2023-01-13T17:53:51.864Z,10.82
2023-01-13T17:55:57.915Z,12.73
2023-01-13T17:58:03.221Z,10.55
2023-01-13T18:00:09.587Z,14.98
2023-01-13T18:02:20.324Z,10.32
2023-01-13T18:04:27.649Z,18.27
2023-01-13T18:06:32.909Z,12.93
2023-01-13T18:08:38.036Z,14.43
2023-01-13T18:10:48.635Z,12.68
2023-01-13T18:12:53.254Z,13.20
2023-01-13T18:14:58.337Z,10.23
2023-01-13T18:17:06.207Z,15.05
2023-01-13T18:19:23.448Z,10.65
2023-01-13T18:21:41.681Z,20.52
2023-01-13T18:23:58.951Z,8.95
2023-01-13T18:26:34.018Z,10.65
2023-01-13T18:28:42.044Z,14.15
2023-01-13T18:30:46.961Z,9.30
2023-01-13T18:32:55.572Z,8.57
2023-01-13T18:35:05.795Z,12.88
2023-01-13T18:37:14.807Z,14.00
2023-01-13T18:39:20.073Z,8.90
2023-01-13T18:41:48.921Z,5.82
2023-01-13T18:43:54.054Z,11.45
2023-01-13T18:46:01.654Z,8.77
2023-01-13T18:48:08.065Z,14.77
2023-01-13T18:50:15.384Z,12.02
2023-01-13T18:52:20.513Z,8.70
2023-01-13T18:54:25.682Z,11.60
2023-01-13T18:56:34.332Z,6.97
2023-01-13T18:58:39.466Z,10.23
2023-01-13T19:00:44.678Z,17.58
2023-01-13T19:05:11.649Z,10.35
2023-01-13T19:07:22.267Z,16.75
2023-01-13T19:09:28.881Z,7.18
2023-01-13T19:11:39.400Z,8.57
2023-01-13T19:13:44.665Z,10.73
2023-01-13T19:15:50.237Z,11.50
2023-01-13T19:17:55.511Z,11.80
2023-01-13T19:20:00.802Z,7.72
2023-01-13T19:22:06.029Z,11.32
2023-01-13T19:24:28.955Z,11.98
2023-01-13T19:26:39.520Z,10.85
2023-01-13T19:28:44.634Z,14.23
2023-01-13T19:30:51.345Z,9.80
2023-01-13T19:32:56.443Z,6.18
2023-01-13T19:35:01.984Z,11.50
2023-01-13T19:37:08.418Z,10.45
2023-01-13T19:39:14.820Z,6.68
2023-01-13T19:41:31.781Z,13.73
2023-01-13T19:47:10.885Z,14.65
2023-01-13T19:49:15.620Z,13.43
2023-01-13T19:51:23.816Z,14.88
2023-01-13T19:53:30.792Z,15.65
2023-01-13T19:55:35.545Z,10.05
2023-01-13T19:57:40.571Z,11.02
2023-01-13T19:59:47.869Z,13.90
2023-01-13T20:02:00.248Z,9.23
2023-01-13T20:04:07.865Z,12.48
2023-01-13T20:06:15.041Z,11.70
2023-01-13T20:08:20.073Z,12.30
2023-01-13T20:10:26.444Z,11.45
2023-01-13T20:12:32.156Z,11.85
2023-01-13T20:14:40.113Z,8.70
2023-01-13T20:16:47.775Z,8.38
2023-01-13T20:18:53.307Z,11.75
2023-01-13T20:21:08.826Z,15.32
2023-01-13T20:23:14.214Z,7.88
2023-01-13T20:25:20.329Z,10.90
2023-01-13T20:27:25.723Z,17.17
2023-01-13T20:29:30.878Z,8.82
2023-01-13T20:31:35.662Z,12.80
2023-01-13T20:33:48.788Z,11.00
2023-01-13T20:38:04.247Z,13.18
2023-01-13T20:40:11.086Z,9.80
2023-01-13T20:42:31.383Z,11.65
2023-01-13T20:44:36.392Z,6.80
2023-01-13T20:46:41.785Z,11.85
2023-01-13T20:48:49.199Z,7.57
2023-01-13T20:50:59.228Z,6.70
2023-01-13T20:53:04.926Z,16.75
2023-01-13T20:55:10.968Z,10.80
2023-01-13T20:57:15.943Z,12.80
2023-01-13T20:59:20.910Z,13.38
2023-01-13T21:01:26.883Z,12.38
2023-01-13T21:03:34.686Z,14.60
2023-01-13T21:05:42.187Z,12.85
2023-01-13T21:07:46.800Z,11.48
2023-01-13T21:09:51.799Z,16.20
2023-01-13T21:12:09.664Z,13.18
2023-01-13T21:14:29.471Z,9.50
2023-01-13T21:16:34.429Z,15.05
2023-01-13T21:18:51.581Z,9.20
2023-01-13T21:21:11.623Z,8.50
2023-01-13T21:23:16.477Z,5.45
2023-01-13T21:25:22.112Z,9.18
2023-01-13T21:27:27.670Z,13.52
2023-01-13T21:29:32.418Z,13.23
2023-01-13T21:31:37.137Z,11.18
2023-01-13T21:33:42.137Z,12.07
2023-01-13T21:35:46.910Z,13.75
2023-01-13T21:37:54.289Z,9.98
2023-01-13T21:39:59.490Z,11.45
2023-01-13T21:42:16.584Z,15.05
2023-01-13T21:44:35.317Z,11.95
2023-01-13T21:46:52.824Z,17.48
2023-01-13T21:48:57.445Z,10.85
2023-01-13T21:51:05.714Z,9.73
2023-01-13T21:53:15.695Z,8.25
2023-01-13T21:55:20.690Z,12.95
2023-01-13T21:57:27.276Z,10.25
2023-01-13T21:59:32.061Z,12.68
2023-01-13T22:01:36.826Z,18.58
2023-01-13T22:04:16.704Z,10.32
2023-01-13T22:06:21.698Z,10.75
2023-01-13T22:08:31.016Z,11.63
2023-01-13T22:10:36.129Z,9.90
2023-01-13T22:12:41.566Z,16.17
2023-01-13T22:14:44.021Z,16.38
2023-01-13T22:16:50.259Z,11.23
2023-01-13T22:18:56.243Z,13.15
2023-01-13T22:21:03.904Z,10.73
2023-01-13T22:23:11.269Z,11.10
2023-01-13T22:25:21.153Z,14.98
2023-01-13T22:27:31.315Z,12.48
2023-01-13T22:29:37.698Z,10.98
2023-01-13T22:31:43.215Z,12.70
2023-01-13T22:33:48.510Z,10.80
2023-01-13T22:35:57.339Z,11.68
2023-01-13T22:38:02.143Z,13.45
2023-01-13T22:40:07.679Z,8.10
2023-01-13T22:42:14.974Z,10.38
2023-01-13T22:44:19.674Z,13.48
2023-01-13T22:46:25.028Z,13.82
2023-01-13T22:48:31.674Z,11.35
2023-01-13T22:50:36.426Z,8.02
2023-01-13T22:52:41.644Z,8.63
2023-01-13T22:54:46.831Z,8.60
2023-01-13T22:56:51.599Z,11.18
2023-01-13T22:59:03.320Z,12.30
2023-01-13T23:01:13.018Z,9.32
2023-01-13T23:03:18.219Z,8.55
2023-01-13T23:05:23.832Z,10.95
2023-01-13T23:07:28.784Z,8.43
2023-01-13T23:09:36.485Z,9.00
2023-01-13T23:11:43.756Z,8.65
2023-01-13T23:13:48.700Z,12.27
2023-01-13T23:15:56.045Z,9.98
2023-01-13T23:18:02.758Z,10.68
2023-01-13T23:20:09.940Z,12.02
2023-01-13T23:22:15.711Z,8.15
2023-01-13T23:24:20.787Z,9.85
2023-01-13T23:26:25.938Z,14.30
2023-01-13T23:28:31.064Z,14.65
2023-01-13T23:30:35.972Z,12.90
2023-01-13T23:32:43.480Z,15.02
2023-01-13T23:34:48.232Z,12.10
2023-01-13T23:36:52.945Z,15.70
2023-01-13T23:38:58.353Z,14.35
2023-01-13T23:41:09.250Z,10.45
2023-01-13T23:43:14.044Z,20.13
2023-01-13T23:45:18.790Z,14.15
2023-01-13T23:47:23.399Z,13.52
2023-01-13T23:49:34.368Z,10.98
2023-01-13T23:51:39.346Z,8.13
2023-01-13T23:53:45.676Z,13.10
2023-01-13T23:55:50.494Z,9.90
2023-01-13T23:57:55.268Z,15.05
